createdAt,value
2018-03-03T00:00:06.560Z,92333.58
2018-03-03T00:02:34.726Z,92336.09
2018-03-03T00:05:03.236Z,92333.97
2018-03-03T00:07:31.240Z,92328.66
2018-03-03T00:09:59.251Z,92331.52
2018-03-03T00:12:27.843Z,92327.13
2018-03-03T00:14:55.923Z,92331.04
2018-03-03T00:17:23.805Z,92329.33
2018-03-03T00:19:51.969Z,92326.52
2018-03-03T00:22:32.190Z,92327.84
2018-03-03T00:25:00.193Z,92325.34
2018-03-03T00:27:28.149Z,92334.48
2018-03-03T00:29:56.087Z,92332.81
2018-03-03T00:32:24.007Z,92340.81
2018-03-03T00:34:51.874Z,92335.36
2018-03-03T00:37:19.687Z,92331.92
2018-03-03T00:39:47.584Z,92340.47
2018-03-03T00:42:15.548Z,92338.52
2018-03-03T00:44:43.612Z,92344.05
2018-03-03T00:47:11.530Z,92336.24
2018-03-03T00:49:39.423Z,92339.48
2018-03-03T00:52:07.442Z,92338.23
2018-03-03T00:54:35.482Z,92340.09
2018-03-03T00:57:03.377Z,92335.63
2018-03-03T00:59:31.451Z,92338.59
2018-03-03T01:02:00.346Z,92335.36
2018-03-03T01:04:28.415Z,92337.65
2018-03-03T01:06:57.168Z,92338.19
2018-03-03T01:09:25.032Z,92339.16
2018-03-03T01:11:52.996Z,92340.80
2018-03-03T01:14:20.815Z,92337.97
2018-03-03T01:16:48.875Z,92344.56
2018-03-03T01:19:16.952Z,92340.23
2018-03-03T01:21:44.818Z,92355.67
2018-03-03T01:24:12.887Z,92349.76
2018-03-03T01:26:40.825Z,92352.35
2018-03-03T01:29:09.646Z,92356.07
2018-03-03T01:31:37.513Z,92356.60
2018-03-03T01:34:05.410Z,92358.70
2018-03-03T01:36:33.878Z,92364.78
2018-03-03T01:39:02.137Z,92368.58
2018-03-03T01:41:29.924Z,92378.23
2018-03-03T01:43:57.794Z,92379.87
2018-03-03T01:46:25.638Z,92380.71
2018-03-03T01:48:53.427Z,92384.41
2018-03-03T01:51:32.994Z,92389.50
2018-03-03T01:54:01.086Z,92390.64
2018-03-03T01:56:29.190Z,92393.16
2018-03-03T01:58:57.119Z,92391.70
2018-03-03T02:01:24.930Z,92394.77
2018-03-03T02:03:53.057Z,92400.12
2018-03-03T02:06:20.918Z,92399.69
2018-03-03T02:08:49.038Z,92403.30
2018-03-03T02:11:17.119Z,92402.96
2018-03-03T02:13:45.272Z,92406.69
2018-03-03T02:16:13.045Z,92405.90
2018-03-03T02:18:40.952Z,92405.02
2018-03-03T02:21:10.080Z,92403.05
2018-03-03T02:23:38.160Z,92409.53
2018-03-03T02:26:06.276Z,92407.05
2018-03-03T02:28:34.227Z,92406.31
2018-03-03T02:31:02.162Z,92410.41
2018-03-03T02:33:30.030Z,92411.38
2018-03-03T02:35:57.873Z,92405.53
2018-03-03T02:38:25.862Z,92405.38
2018-03-03T02:40:53.756Z,92400.12
2018-03-03T02:43:21.827Z,92393.94
2018-03-03T02:45:49.913Z,92393.94
2018-03-03T02:48:18.005Z,92390.31
2018-03-03T02:50:46.062Z,92384.72
2018-03-03T02:53:14.127Z,92386.31
2018-03-03T02:55:42.058Z,92382.69
2018-03-03T02:58:09.975Z,92394.25
2018-03-03T03:00:38.034Z,92393.73
2018-03-03T03:03:06.155Z,92391.12
2018-03-03T03:05:34.076Z,92392.76
2018-03-03T03:08:02.153Z,92396.11
2018-03-03T03:10:30.222Z,92390.30
2018-03-03T03:12:58.125Z,92396.00
2018-03-03T03:15:26.527Z,92394.20
2018-03-03T03:17:54.508Z,92388.94
2018-03-03T03:20:22.425Z,92385.89
2018-03-03T03:22:50.568Z,92385.26
2018-03-03T03:25:18.409Z,92389.52
2018-03-03T03:27:46.774Z,92388.59
2018-03-03T03:30:14.866Z,92393.25
2018-03-03T03:32:43.381Z,92396.61
2018-03-03T03:35:11.451Z,92394.91
2018-03-03T03:37:39.468Z,92396.88
2018-03-03T03:40:07.584Z,92388.73
2018-03-03T03:42:36.148Z,92388.64
2018-03-03T03:45:03.956Z,92387.55
2018-03-03T03:47:31.829Z,92392.25
2018-03-03T03:50:00.902Z,92387.92
2018-03-03T03:52:28.969Z,92391.19
2018-03-03T03:54:57.051Z,92384.50
2018-03-03T03:57:24.955Z,92384.92
2018-03-03T03:59:53.341Z,92378.56
2018-03-03T04:02:22.083Z,92390.77
2018-03-03T04:04:50.003Z,92382.36
2018-03-03T04:07:18.096Z,92385.22
2018-03-03T04:09:45.962Z,92382.87
2018-03-03T04:12:13.932Z,92378.55
2018-03-03T04:14:42.522Z,92378.23
2018-03-03T04:17:10.415Z,92375.73
2018-03-03T04:19:38.485Z,92377.12
2018-03-03T04:22:06.453Z,92367.47
2018-03-03T04:24:34.591Z,92370.59
2018-03-03T04:27:02.411Z,92370.61
2018-03-03T04:29:30.471Z,92364.90
2018-03-03T04:31:58.489Z,92369.44
2018-03-03T04:34:26.817Z,92365.74
2018-03-03T04:36:54.589Z,92365.92
2018-03-03T04:39:22.737Z,92366.71
2018-03-03T04:41:50.928Z,92364.92
2018-03-03T04:44:18.871Z,92358.84
2018-03-03T04:46:47.746Z,92359.62
2018-03-03T04:49:16.451Z,92359.95
2018-03-03T04:51:44.547Z,92363.78
2018-03-03T04:54:12.618Z,92357.55
2018-03-03T04:56:40.688Z,92356.52
2018-03-03T04:59:14.048Z,92361.23
2018-03-03T05:01:58.912Z,92358.33
2018-03-03T05:04:29.904Z,92355.03
2018-03-03T05:07:18.478Z,92363.72
2018-03-03T05:09:46.518Z,92365.05
2018-03-03T05:12:18.085Z,92360.54
2018-03-03T05:14:52.101Z,92362.17
2018-03-03T05:17:25.990Z,92362.88
2018-03-03T05:19:59.580Z,92361.80
2018-03-03T05:22:33.195Z,92355.66
2018-03-03T05:25:17.113Z,92360.09
2018-03-03T05:27:50.567Z,92354.95
2018-03-03T05:30:35.296Z,92354.91
2018-03-03T05:33:08.900Z,92360.57
2018-03-03T05:35:55.503Z,92366.27
2018-03-03T05:38:42.172Z,92365.81
2018-03-03T05:41:15.783Z,92362.06
2018-03-03T05:43:49.422Z,92354.98
2018-03-03T05:46:22.941Z,92355.72
2018-03-03T05:48:56.386Z,92349.34
2018-03-03T05:51:24.481Z,92350.04
2018-03-03T05:54:09.156Z,92352.97
2018-03-03T05:56:47.056Z,92350.56
2018-03-03T05:59:34.850Z,92349.91
2018-03-03T06:02:06.321Z,92346.19
2018-03-03T06:04:45.155Z,92351.39
2018-03-03T06:07:29.925Z,92355.50
2018-03-03T06:09:57.995Z,92341.11
2018-03-03T06:12:26.054Z,92346.98
2018-03-03T06:14:53.898Z,92351.81
2018-03-03T06:17:21.915Z,92338.11
2018-03-03T06:19:49.957Z,92337.77
2018-03-03T06:22:18.080Z,92340.33
2018-03-03T06:24:45.992Z,92345.11
2018-03-03T06:27:14.906Z,92336.91
2018-03-03T06:29:44.209Z,92334.45
2018-03-03T06:32:12.192Z,92338.71
2018-03-03T06:34:40.332Z,92332.40
2018-03-03T06:37:08.426Z,92328.67
2018-03-03T06:39:36.275Z,92325.41
2018-03-03T06:42:05.161Z,92327.95
2018-03-03T06:44:32.967Z,92329.13
2018-03-03T06:47:00.840Z,92336.00
2018-03-03T06:49:28.770Z,92332.53
2018-03-03T06:51:57.062Z,92327.88
2018-03-03T06:54:25.072Z,92331.23
2018-03-03T06:56:53.214Z,92333.82
2018-03-03T06:59:21.576Z,92335.44
2018-03-03T07:01:49.717Z,92337.92
2018-03-03T07:04:17.541Z,92328.77
2018-03-03T07:06:45.596Z,92338.04
2018-03-03T07:09:13.578Z,92338.80
2018-03-03T07:11:41.858Z,92338.84
2018-03-03T07:14:09.923Z,92338.72
2018-03-03T07:16:38.794Z,92338.56
2018-03-03T07:19:06.800Z,92331.16
2018-03-03T07:21:34.875Z,92327.70
2018-03-03T07:24:02.772Z,92319.14
2018-03-03T07:26:30.589Z,92321.99
2018-03-03T07:28:58.707Z,92322.14
2018-03-03T07:31:26.725Z,92311.33
2018-03-03T07:33:54.736Z,92300.81
2018-03-03T07:36:23.429Z,92297.85
2018-03-03T07:38:52.051Z,92293.64
2018-03-03T07:41:20.212Z,92295.39
2018-03-03T07:43:48.311Z,92287.32
2018-03-03T07:46:16.383Z,92285.30
2018-03-03T07:48:45.791Z,92281.34
2018-03-03T07:51:13.667Z,92275.53
2018-03-03T07:53:41.723Z,92278.97
2018-03-03T07:56:09.744Z,92278.24
2018-03-03T07:58:49.655Z,92283.72
2018-03-03T08:01:17.797Z,92286.38
2018-03-03T08:03:45.643Z,92285.67
2018-03-03T08:06:13.657Z,92286.17
2018-03-03T08:08:41.676Z,92291.43
2018-03-03T08:11:09.803Z,92290.75
2018-03-03T08:13:37.873Z,92282.88
2018-03-03T08:16:06.149Z,92272.37
2018-03-03T08:18:35.064Z,92270.73
2018-03-03T08:21:03.760Z,92262.95
2018-03-03T08:23:31.777Z,92256.35
2018-03-03T08:25:59.870Z,92248.61
2018-03-03T08:28:27.942Z,92249.38
2018-03-03T08:30:55.697Z,92252.30
2018-03-03T08:33:23.779Z,92246.16
2018-03-03T08:35:51.834Z,92231.02
2018-03-03T08:38:19.904Z,92225.34
2018-03-03T08:40:47.773Z,92226.41
2018-03-03T08:43:15.912Z,92231.55
2018-03-03T08:45:43.912Z,92253.43
2018-03-03T08:48:11.902Z,92256.41
2018-03-03T08:50:40.038Z,92254.08
2018-03-03T08:53:07.905Z,92251.80
2018-03-03T08:55:35.914Z,92240.70
2018-03-03T08:58:03.866Z,92233.59
2018-03-03T09:00:31.559Z,92225.56
2018-03-03T09:02:59.450Z,92216.24
2018-03-03T09:05:27.158Z,92217.97
2018-03-03T09:07:54.850Z,92224.47
2018-03-03T09:10:23.143Z,92216.56
2018-03-03T09:12:50.853Z,92216.45
2018-03-03T09:15:18.588Z,92217.13
2018-03-03T09:17:46.359Z,92217.18
2018-03-03T09:20:14.051Z,92216.52
2018-03-03T09:22:42.690Z,92213.71
2018-03-03T09:25:10.391Z,92217.52
2018-03-03T09:27:38.228Z,92210.61
2018-03-03T09:30:06.883Z,92210.18
2018-03-03T09:32:34.694Z,92205.19
2018-03-03T09:35:02.400Z,92202.81
2018-03-03T09:37:30.161Z,92188.69
2018-03-03T09:39:58.648Z,92187.74
2018-03-03T09:42:27.255Z,92186.20
2018-03-03T09:44:54.977Z,92184.20
2018-03-03T09:47:22.774Z,92179.70
2018-03-03T09:49:50.593Z,92174.23
2018-03-03T09:52:18.322Z,92176.77
2018-03-03T09:54:46.143Z,92171.81
2018-03-03T09:57:13.897Z,92181.47
2018-03-03T09:59:41.642Z,92180.42
2018-03-03T10:02:09.352Z,92185.06
2018-03-03T10:04:37.137Z,92182.10
2018-03-03T10:07:04.841Z,92177.05
2018-03-03T10:09:32.656Z,92170.00
2018-03-03T10:12:00.370Z,92159.34
2018-03-03T10:14:28.084Z,92157.55
2018-03-03T10:16:55.851Z,92155.84
2018-03-03T10:19:23.562Z,92153.77
2018-03-03T10:21:51.359Z,92157.33
2018-03-03T10:24:19.047Z,92151.13
2018-03-03T10:26:46.838Z,92158.24
2018-03-03T10:29:14.617Z,92146.64
2018-03-03T10:31:42.781Z,92140.36
2018-03-03T10:34:10.505Z,92139.17
2018-03-03T10:36:38.266Z,92127.87
2018-03-03T10:39:06.088Z,92127.05
2018-03-03T10:41:33.816Z,92131.31
2018-03-03T10:44:01.590Z,92133.67
2018-03-03T10:46:30.160Z,92128.41
2018-03-03T10:48:57.924Z,92118.61
2018-03-03T10:51:25.620Z,92105.06
2018-03-03T10:53:54.284Z,92095.47
2018-03-03T10:56:22.327Z,92089.75
2018-03-03T10:58:50.069Z,92083.13
2018-03-03T11:01:17.882Z,92082.66
2018-03-03T11:03:45.575Z,92081.87
2018-03-03T11:06:13.329Z,92080.11
2018-03-03T11:08:41.070Z,92076.66
2018-03-03T11:11:09.014Z,92061.41
2018-03-03T11:13:36.727Z,92059.13
2018-03-03T11:16:04.540Z,92049.16
2018-03-03T11:18:33.382Z,92044.87
2018-03-03T11:21:01.090Z,92045.40
2018-03-03T11:23:28.845Z,92042.45
2018-03-03T11:25:56.611Z,92040.73
2018-03-03T11:28:24.359Z,92037.20
2018-03-03T11:30:52.083Z,92032.81
2018-03-03T11:33:19.909Z,92024.97
2018-03-03T11:35:47.613Z,92024.73
2018-03-03T11:38:15.331Z,92014.27
2018-03-03T11:40:43.088Z,92013.34
2018-03-03T11:43:11.337Z,92012.01
2018-03-03T11:45:39.004Z,92010.97
2018-03-03T11:48:06.793Z,92002.75
2018-03-03T11:50:34.501Z,92000.77
2018-03-03T11:53:02.260Z,91995.42
2018-03-03T11:55:29.974Z,91995.28
2018-03-03T11:57:57.764Z,91998.59
2018-03-03T12:00:25.537Z,91987.68
2018-03-03T12:02:53.261Z,91973.18
2018-03-03T12:05:21.068Z,91971.98
2018-03-03T12:07:48.782Z,91965.16
2018-03-03T12:10:16.495Z,91963.72
2018-03-03T12:12:44.311Z,91952.65
2018-03-03T12:15:12.048Z,91950.52
2018-03-03T12:17:39.796Z,91946.13
2018-03-03T12:20:07.516Z,91939.02
2018-03-03T12:22:35.296Z,91939.05
2018-03-03T12:25:03.045Z,91923.69
2018-03-03T12:27:30.899Z,91925.30
2018-03-03T12:29:58.632Z,91918.17
2018-03-03T12:32:26.409Z,91922.44
2018-03-03T12:34:54.147Z,91915.45
2018-03-03T12:37:22.132Z,91907.25
2018-03-03T12:39:49.880Z,91908.33
2018-03-03T12:42:17.620Z,91900.61
2018-03-03T12:44:45.396Z,91889.72
2018-03-03T12:47:13.168Z,91890.22
2018-03-03T12:49:40.927Z,91890.94
2018-03-03T12:52:08.667Z,91891.03
2018-03-03T12:54:36.406Z,91884.94
2018-03-03T12:57:04.112Z,91888.07
2018-03-03T12:59:31.885Z,91884.02
2018-03-03T13:01:59.612Z,91873.63
2018-03-03T13:04:27.330Z,91870.98
2018-03-03T13:06:55.126Z,91864.29
2018-03-03T13:09:22.832Z,91864.28
2018-03-03T13:11:51.191Z,91865.95
2018-03-03T13:14:18.875Z,91869.52
2018-03-03T13:16:46.641Z,91857.86
2018-03-03T13:19:14.407Z,91862.09
2018-03-03T13:21:42.220Z,91863.11
2018-03-03T13:24:10.263Z,91864.97
2018-03-03T13:26:39.164Z,91871.01
2018-03-03T13:29:06.905Z,91867.58
2018-03-03T13:31:34.664Z,91863.88
2018-03-03T13:34:02.400Z,91866.22
2018-03-03T13:36:30.197Z,91874.36
2018-03-03T13:38:57.963Z,91874.00
2018-03-03T13:41:25.732Z,91872.84
2018-03-03T13:43:53.498Z,91863.45
2018-03-03T13:46:21.264Z,91858.64
2018-03-03T13:48:48.969Z,91853.92
2018-03-03T13:51:16.725Z,91852.41
2018-03-03T13:53:44.527Z,91848.53
2018-03-03T13:56:12.953Z,91841.77
2018-03-03T13:58:40.761Z,91839.42
2018-03-03T14:01:09.551Z,91836.42
2018-03-03T14:03:37.396Z,91835.41
2018-03-03T14:06:05.108Z,91842.52
2018-03-03T14:08:32.862Z,91843.95
2018-03-03T14:11:00.693Z,91839.58
2018-03-03T14:13:28.578Z,91835.95
2018-03-03T14:15:56.396Z,91826.12
2018-03-03T14:18:24.120Z,91827.60
2018-03-03T14:20:51.888Z,91819.64
2018-03-03T14:23:19.632Z,91823.94
2018-03-03T14:25:47.349Z,91820.55
2018-03-03T14:28:15.211Z,91819.83
2018-03-03T14:30:42.945Z,91830.00
2018-03-03T14:33:10.674Z,91827.41
2018-03-03T14:35:38.410Z,91821.77
2018-03-03T14:38:06.184Z,91822.27
2018-03-03T14:40:33.907Z,91835.76
2018-03-03T14:43:01.646Z,91828.61
2018-03-03T14:45:29.417Z,91825.84
2018-03-03T14:47:57.183Z,91832.81
2018-03-03T14:50:24.935Z,91829.64
2018-03-03T14:52:52.660Z,91828.86
2018-03-03T14:55:20.354Z,91836.64
2018-03-03T14:57:48.132Z,91842.41
2018-03-03T15:00:15.833Z,91842.80
2018-03-03T15:02:43.635Z,91847.00
2018-03-03T15:05:11.377Z,91854.36
2018-03-03T15:07:39.408Z,91854.77
2018-03-03T15:10:07.146Z,91849.42
2018-03-03T15:12:34.905Z,91857.85
2018-03-03T15:15:02.585Z,91857.17
2018-03-03T15:17:30.318Z,91857.95
2018-03-03T15:19:58.077Z,91854.48
2018-03-03T15:22:25.758Z,91857.82
2018-03-03T15:24:53.528Z,91861.19
2018-03-03T15:27:21.304Z,91861.68
2018-03-03T15:29:49.074Z,91870.94
2018-03-03T15:32:18.054Z,91876.05
2018-03-03T15:34:45.903Z,91880.20
2018-03-03T15:37:13.697Z,91880.95
2018-03-03T15:39:41.491Z,91893.42
2018-03-03T15:42:09.341Z,91894.22
2018-03-03T15:44:37.189Z,91891.36
2018-03-03T15:47:04.887Z,91899.61
2018-03-03T15:49:33.436Z,91900.23
2018-03-03T15:52:02.348Z,91907.56
2018-03-03T15:54:30.194Z,91918.39
2018-03-03T15:56:57.922Z,91913.39
2018-03-03T15:59:25.721Z,91913.58
2018-03-03T16:01:53.465Z,91913.86
2018-03-03T16:04:21.249Z,91913.97
2018-03-03T16:06:49.036Z,91922.03
2018-03-03T16:09:16.776Z,91931.73
2018-03-03T16:11:44.587Z,91938.94
2018-03-03T16:14:12.314Z,91947.53
2018-03-03T16:16:40.039Z,91942.73
2018-03-03T16:19:07.898Z,91941.59
2018-03-03T16:21:35.672Z,91950.69
2018-03-03T16:24:03.497Z,91954.20
2018-03-03T16:26:31.257Z,91963.19
2018-03-03T16:28:58.984Z,91965.91
2018-03-03T16:31:26.768Z,91971.17
2018-03-03T16:33:55.039Z,91967.72
2018-03-03T16:36:22.881Z,91973.05
2018-03-03T16:38:50.570Z,91976.30
2018-03-03T16:41:18.499Z,91973.38
2018-03-03T16:43:46.304Z,91976.88
2018-03-03T16:46:14.118Z,91978.65
2018-03-03T16:48:41.897Z,91986.52
2018-03-03T16:51:09.746Z,91983.59
2018-03-03T16:53:37.495Z,91985.28
2018-03-03T16:56:05.378Z,91999.23
2018-03-03T16:58:33.121Z,91996.22
2018-03-03T17:01:00.929Z,91996.92
2018-03-03T17:03:28.828Z,92001.25
2018-03-03T17:05:56.689Z,92006.95
2018-03-03T17:08:24.469Z,92004.45
2018-03-03T17:10:52.240Z,92014.00
2018-03-03T17:13:20.174Z,92026.30
2018-03-03T17:15:47.960Z,92026.55
2018-03-03T17:18:15.926Z,92036.02
2018-03-03T17:20:44.946Z,92038.40
2018-03-03T17:23:12.714Z,92039.09
2018-03-03T17:25:40.542Z,92037.27
2018-03-03T17:28:08.261Z,92045.16
2018-03-03T17:30:36.090Z,92044.76
2018-03-03T17:33:03.845Z,92050.13
2018-03-03T17:35:31.692Z,92061.34
2018-03-03T17:38:00.380Z,92063.61
2018-03-03T17:40:28.249Z,92073.45
2018-03-03T17:42:56.036Z,92072.40
2018-03-03T17:45:24.906Z,92082.48
2018-03-03T17:47:52.658Z,92083.38
2018-03-03T17:50:20.502Z,92090.13
2018-03-03T17:52:48.310Z,92094.23
2018-03-03T17:55:16.176Z,92097.81
2018-03-03T17:57:44.963Z,92100.41
2018-03-03T18:00:12.823Z,92106.20
2018-03-03T18:02:40.602Z,92115.69
2018-03-03T18:05:08.451Z,92120.33
2018-03-03T18:07:36.221Z,92118.07
2018-03-03T18:10:04.075Z,92120.86
2018-03-03T18:12:31.840Z,92129.75
2018-03-03T18:14:59.582Z,92134.61
2018-03-03T18:17:27.355Z,92137.61
2018-03-03T18:19:55.051Z,92139.64
2018-03-03T18:22:22.829Z,92149.19
2018-03-03T18:24:50.538Z,92157.59
2018-03-03T18:27:18.244Z,92162.14
2018-03-03T18:29:46.066Z,92174.74
2018-03-03T18:32:13.983Z,92170.91
2018-03-03T18:34:41.796Z,92182.14
2018-03-03T18:37:09.511Z,92187.23
2018-03-03T18:39:37.416Z,92183.84
2018-03-03T18:42:05.129Z,92189.90
2018-03-03T18:44:32.965Z,92196.94
2018-03-03T18:47:00.837Z,92206.19
2018-03-03T18:49:28.601Z,92206.12
2018-03-03T18:51:56.343Z,92210.67
2018-03-03T18:54:24.069Z,92216.61
2018-03-03T18:56:51.829Z,92221.73
2018-03-03T18:59:20.110Z,92223.38
2018-03-03T19:01:47.860Z,92233.87
2018-03-03T19:04:15.703Z,92237.17
2018-03-03T19:06:43.406Z,92235.38
2018-03-03T19:09:11.099Z,92233.05
2018-03-03T19:11:38.916Z,92245.89
2018-03-03T19:14:06.712Z,92243.97
2018-03-03T19:16:34.774Z,92249.83
2018-03-03T19:19:02.535Z,92259.13
2018-03-03T19:21:30.657Z,92258.87
2018-03-03T19:23:58.549Z,92272.87
2018-03-03T19:26:29.387Z,92276.96
2018-03-03T19:28:59.735Z,92288.31
2018-03-03T19:31:27.557Z,92293.38
2018-03-03T19:33:55.394Z,92300.67
2018-03-03T19:36:23.193Z,92295.11
2018-03-03T19:38:51.266Z,92306.68
2018-03-03T19:41:19.146Z,92312.14
2018-03-03T19:43:47.845Z,92319.94
2018-03-03T19:46:16.535Z,92321.98
2018-03-03T19:48:44.297Z,92331.58
2018-03-03T19:51:12.901Z,92335.80
2018-03-03T19:53:40.725Z,92339.85
2018-03-03T19:56:08.570Z,92348.06
2018-03-03T19:58:36.598Z,92347.56
2018-03-03T20:01:05.274Z,92356.63
2018-03-03T20:03:33.023Z,92354.95
2018-03-03T20:06:00.775Z,92365.98
2018-03-03T20:08:28.541Z,92361.30
2018-03-03T20:10:56.267Z,92360.89
2018-03-03T20:13:24.002Z,92371.13
2018-03-03T20:15:52.404Z,92375.17
2018-03-03T20:18:21.119Z,92380.84
2018-03-03T20:20:48.802Z,92381.04
2018-03-03T20:23:16.529Z,92375.88
2018-03-03T20:25:44.237Z,92378.13
2018-03-03T20:28:12.025Z,92378.83
2018-03-03T20:30:39.721Z,92387.06
2018-03-03T20:33:07.527Z,92391.63
2018-03-03T20:35:35.347Z,92387.13
2018-03-03T20:38:03.058Z,92397.83
2018-03-03T20:40:30.793Z,92394.25
2018-03-03T20:42:58.546Z,92395.75
2018-03-03T20:45:26.388Z,92403.42
2018-03-03T20:47:54.155Z,92398.97
2018-03-03T20:50:21.941Z,92401.72
2018-03-03T20:52:49.770Z,92402.52
2018-03-03T20:55:17.608Z,92406.20
2018-03-03T20:57:45.469Z,92411.80
2018-03-03T21:00:13.467Z,92408.30
2018-03-03T21:02:41.222Z,92415.12
2018-03-03T21:05:09.114Z,92419.38
2018-03-03T21:07:36.948Z,92414.47
2018-03-03T21:10:04.835Z,92409.37
2018-03-03T21:12:32.661Z,92415.95
2018-03-03T21:15:00.452Z,92416.79
2018-03-03T21:17:28.249Z,92430.52
2018-03-03T21:19:56.095Z,92425.07
2018-03-03T21:22:23.894Z,92428.31
2018-03-03T21:24:51.630Z,92426.06
2018-03-03T21:27:19.319Z,92426.59
2018-03-03T21:29:47.095Z,92441.59
2018-03-03T21:32:14.783Z,92439.75
2018-03-03T21:34:42.662Z,92441.46
2018-03-03T21:37:10.382Z,92447.66
2018-03-03T21:39:38.089Z,92445.25
2018-03-03T21:42:05.860Z,92448.84
2018-03-03T21:44:33.567Z,92457.36
2018-03-03T21:47:01.407Z,92458.23
2018-03-03T21:49:29.171Z,92463.25
2018-03-03T21:51:56.899Z,92463.05
2018-03-03T21:54:24.691Z,92467.08
2018-03-03T21:56:52.395Z,92475.08
2018-03-03T21:59:20.197Z,92479.59
2018-03-03T22:01:48.715Z,92481.19
2018-03-03T22:04:16.535Z,92472.25
2018-03-03T22:06:44.297Z,92485.20
2018-03-03T22:09:12.003Z,92482.55
2018-03-03T22:11:39.723Z,92494.45
2018-03-03T22:14:07.417Z,92500.54
2018-03-03T22:16:35.151Z,92503.88
2018-03-03T22:19:02.918Z,92510.06
2018-03-03T22:21:30.679Z,92517.05
2018-03-03T22:23:58.440Z,92522.42
2018-03-03T22:26:26.100Z,92521.94
2018-03-03T22:28:53.785Z,92529.50
2018-03-03T22:31:21.720Z,92529.80
2018-03-03T22:33:50.388Z,92537.66
2018-03-03T22:36:18.177Z,92543.36
2018-03-03T22:38:45.853Z,92544.63
2018-03-03T22:41:13.623Z,92556.13
2018-03-03T22:43:41.303Z,92559.46
2018-03-03T22:46:09.061Z,92563.50
2018-03-03T22:48:36.864Z,92568.99
2018-03-03T22:51:04.568Z,92574.58
2018-03-03T22:53:32.323Z,92579.98
2018-03-03T22:56:00.033Z,92585.49
2018-03-03T22:58:27.777Z,92592.17
2018-03-03T23:00:55.499Z,92590.21
2018-03-03T23:03:23.217Z,92597.88
2018-03-03T23:05:51.005Z,92597.58
2018-03-03T23:08:18.720Z,92602.39
2018-03-03T23:10:46.501Z,92606.63
2018-03-03T23:13:14.214Z,92605.64
2018-03-03T23:15:41.975Z,92611.62
2018-03-03T23:18:09.643Z,92615.16
2018-03-03T23:20:37.411Z,92613.59
2018-03-03T23:23:05.099Z,92615.94
2018-03-03T23:25:33.183Z,92619.08
2018-03-03T23:28:00.869Z,92619.67
2018-03-03T23:30:28.588Z,92624.20
2018-03-03T23:32:56.291Z,92629.79
2018-03-03T23:35:24.005Z,92636.00
2018-03-03T23:37:51.764Z,92636.67
2018-03-03T23:40:19.431Z,92634.22
2018-03-03T23:42:47.168Z,92639.92
2018-03-03T23:45:14.906Z,92640.30
2018-03-03T23:47:42.692Z,92647.11
2018-03-03T23:50:10.496Z,92649.36
2018-03-03T23:52:38.237Z,92651.14
2018-03-03T23:55:06.003Z,92653.97
2018-03-03T23:57:33.837Z,92650.45
